Shinkyo Maru No.3 — JD3397 — position and weather

sailwx.info

Track history (hours):
 
Tides and Currents Weather Stations Pressure Air Temp Water Temp Dewpoint Dewpoint Depression Visibility Wind Speed Wind Dir Waves Ship Positions

Shinkyo Maru No.3

Last reported at 2018-Jun-24 15:50 UTC. Time now 2018-Jun-24 20:41 UTC.
Position N 34°43' E 134°48'.

Length 55 m; draft 3 m.

Type: Cargo ship. MMSI: 431003752.

Date/timePositionNaut miles runAvg speedWind from/ knotsBaromVisibWave heightAir tempDewpointWater temp
2018-Jun-24 15:50N 34°43' E 134°48'  
2018-Jun-22 06:49N 34°42' E 134°50'611.8
2018-Jun-22 06:18N 34°38' E 134°56'413.0
2018-Jun-22 05:57N 34°37' E 135°01'612.3
2018-Jun-22 05:30N 34°37' E 135°08'611.8
2018-Jun-22 05:00N 34°39' E 135°15'3 6.5
2018-Jun-22 04:30N 34°42' E 135°15'0 0.0
2018-Jun-22 03:55N 34°42' E 135°15'0 0.0
2018-Jun-22 03:13N 34°42' E 135°15'0 0.0
2018-Jun-22 02:55N 34°42' E 135°15'0 0.0
2018-Jun-22 02:13N 34°42' E 135°15'0 0.0
2018-Jun-22 01:55N 34°42' E 135°15'0 0.0
2018-Jun-22 01:25N 34°42' E 135°15'0 0.0
2018-Jun-22 00:55N 34°42' E 135°15'0 0.0
2018-Jun-22 00:13N 34°42' E 135°15'0 0.0
2018-Jun-21 23:43N 34°42' E 135°15'0 0.0
2018-Jun-21 23:25N 34°42' E 135°15'0 0.0
2018-Jun-21 22:55N 34°42' E 135°15'0 0.8
2018-Jun-21 22:27N 34°42' E 135°15'0 0.6
2018-Jun-21 21:58N 34°42' E 135°15'3 6.5
2018-Jun-21 21:30N 34°39' E 135°15'3 6.0
2018-Jun-21 21:00N 34°37' E 135°13'3 6.7
2018-Jun-21 20:31N 34°36' E 135°09'5 9.1
2018-Jun-21 20:00N 34°36' E 135°03'7 8.9
2018-Jun-21 19:16N 34°37' E 134°56'6 9.4
2018-Jun-21 18:37N 34°41' E 134°50'0 0.0
2018-Jun-21 14:15N 34°41' E 134°50'310.9
2018-Jun-21 13:58N 34°39' E 134°53'710.7
2018-Jun-21 13:18N 34°37' E 135°01'3 9.0
2018-Jun-21 13:00N 34°36' E 135°04'611.2
2018-Jun-21 12:30N 34°38' E 135°11'5 9.2
2018-Jun-21 12:00N 34°41' E 135°15'1 1.9
2018-Jun-21 11:23N 34°42' E 135°15'0 0.0
2018-Jun-21 10:53N 34°42' E 135°15'0 0.0
2018-Jun-21 10:23N 34°42' E 135°15'0 0.0
2018-Jun-21 09:53N 34°42' E 135°15'0 0.0
2018-Jun-21 09:29N 34°42' E 135°15'0 0.0
2018-Jun-21 08:47N 34°42' E 135°15'0 0.0
2018-Jun-21 08:29N 34°42' E 135°15'0 0.0
2018-Jun-21 07:23N 34°42' E 135°15'0 0.0
2018-Jun-21 06:59N 34°42' E 135°15'0 0.0
2018-Jun-21 06:29N 34°42' E 135°15'0 0.0
2018-Jun-21 05:59N 34°42' E 135°15'0 0.0
2018-Jun-21 05:29N 34°42' E 135°15'0 0.0
2018-Jun-21 04:53N 34°42' E 135°15'0 0.0
2018-Jun-21 04:29N 34°42' E 135°15'0 0.0
2018-Jun-21 03:59N 34°42' E 135°15'0 0.0
2018-Jun-21 03:23N 34°42' E 135°15'0 0.0
2018-Jun-21 02:53N 34°42' E 135°15'0 0.0
2018-Jun-21 02:23N 34°42' E 135°15'0 0.0
2018-Jun-21 01:05N 34°42' E 135°15'0 0.0
2018-Jun-21 00:59N 34°42' E 135°15'0 0.0
2018-Jun-21 00:23N 34°42' E 135°15'0 0.0
2018-Jun-20 23:53N 34°42' E 135°15'0 0.0
2018-Jun-20 23:29N 34°42' E 135°15'0 0.0
2018-Jun-20 22:59N 34°42' E 135°15'0 0.0
2018-Jun-20 22:29N 34°42' E 135°15'0 0.2
2018-Jun-20 21:59N 34°42' E 135°15'3 6.4
2018-Jun-20 21:30N 34°39' E 135°15'3 6.4
2018-Jun-20 21:00N 34°37' E 135°13'510.0
2018-Jun-20 20:30N 34°35' E 135°07'510.0
2018-Jun-20 20:00N 34°37' E 135°01'510.4
2018-Jun-20 19:30N 34°37' E 134°55'7 0.8
2018-Jun-20 11:17N 34°42' E 134°49'1 0.3
2018-Jun-20 08:31N 34°41' E 134°50'110.9
2018-Jun-20 08:26N 34°40' E 134°50'510.2
2018-Jun-20 07:57N 34°38' E 134°55'511.5
2018-Jun-20 07:30N 34°37' E 135°01'611.0
2018-Jun-20 07:00N 34°35' E 135°08'611.0
2018-Jun-20 06:30N 34°34' E 135°14'611.4
2018-Jun-20 06:00N 34°33' E 135°21'3 0.4
2018-Jun-19 22:27N 34°31' E 135°25'3 7.4
2018-Jun-19 21:59N 34°33' E 135°21'510.3
2018-Jun-19 21:29N 34°33' E 135°15'510.5
2018-Jun-19 21:00N 34°34' E 135°08'510.8
2018-Jun-19 20:30N 34°36' E 135°02'510.8
2018-Jun-19 20:00N 34°37' E 134°56'611.1
2018-Jun-19 19:29N 34°40' E 134°50'3 0.3
2018-Jun-19 09:44N 34°43' E 134°48'210.6
2018-Jun-19 09:30N 34°41' E 134°50'5 9.7
2018-Jun-19 08:56N 34°38' E 134°55'5 9.9
2018-Jun-19 08:27N 34°37' E 135°01'4 8.4
2018-Jun-19 08:00N 34°37' E 135°06'510.9
2018-Jun-19 07:30N 34°38' E 135°12'4 8.8
2018-Jun-19 07:00N 34°42' E 135°15'0 0.4
2018-Jun-19 06:26N 34°42' E 135°15'0 0.0
2018-Jun-19 05:56N 34°42' E 135°15'0 0.0
2018-Jun-19 05:20N 34°42' E 135°15'0 0.0
2018-Jun-19 04:50N 34°42' E 135°15'0 0.0
2018-Jun-19 04:26N 34°42' E 135°15'0 0.0
2018-Jun-19 03:44N 34°42' E 135°15'0 0.0
2018-Jun-19 03:20N 34°42' E 135°15'0 0.0
2018-Jun-19 02:56N 34°42' E 135°15'0 0.0
2018-Jun-19 01:44N 34°42' E 135°15'0 0.0
2018-Jun-19 00:56N 34°42' E 135°15'0 0.0
2018-Jun-19 00:26N 34°42' E 135°15'0 0.0
2018-Jun-18 23:56N 34°42' E 135°15'0 0.0
2018-Jun-18 23:26N 34°42' E 135°15'0 0.2
2018-Jun-18 23:00N 34°42' E 135°15'1 1.5
2018-Jun-18 22:30N 34°41' E 135°15'0 0.0
2018-Jun-18 22:00N 34°41' E 135°15'0 0.0
2018-Jun-18 21:30N 34°41' E 135°15'0 0.0
2018-Jun-18 21:00N 34°41' E 135°15'0 0.0
2018-Jun-18 20:30N 34°41' E 135°15'0 0.0
2018-Jun-18 20:00N 34°41' E 135°15'0 0.0
2018-Jun-18 19:30N 34°41' E 135°15'0 0.1
2018-Jun-18 19:00N 34°41' E 135°15'1 1.6
2018-Jun-18 18:30N 34°41' E 135°15'4 8.6
2018-Jun-18 18:00N 34°37' E 135°12'610.4
2018-Jun-18 17:28N 34°35' E 135°06'4 8.4
2018-Jun-18 16:57N 34°37' E 135°01'5 9.1
2018-Jun-18 16:22N 34°37' E 134°54'5 9.5
2018-Jun-18 15:51N 34°40' E 134°50'3 0.4
2018-Jun-18 08:33N 34°43' E 134°48'210.2
2018-Jun-18 08:21N 34°41' E 134°50'3 9.7
2018-Jun-18 08:00N 34°39' E 134°53'510.0
2018-Jun-18 07:28N 34°38' E 134°59'4 8.5
2018-Jun-18 07:00N 34°36' E 135°04'611.0
2018-Jun-18 06:30N 34°37' E 135°10'612.1
2018-Jun-18 06:00N 34°38' E 135°17'611.8
2018-Jun-18 05:29N 34°42' E 135°24'0 0.7
2018-Jun-18 04:56N 34°42' E 135°24'0 0.0
2018-Jun-18 04:29N 34°42' E 135°24'0 0.0
2018-Jun-18 04:00N 34°42' E 135°24'0 0.0
2018-Jun-18 03:30N 34°42' E 135°24'0 0.0
2018-Jun-18 03:00N 34°42' E 135°24'0 0.0
2018-Jun-18 02:30N 34°42' E 135°24'0 0.1
2018-Jun-18 01:59N 34°42' E 135°24'0 0.0
2018-Jun-18 01:30N 34°42' E 135°24'0 0.0
2018-Jun-18 01:00N 34°42' E 135°24'0 0.0
2018-Jun-18 00:25N 34°42' E 135°24'0 0.0
2018-Jun-18 00:00N 34°42' E 135°24'0 0.0
2018-Jun-17 23:30N 34°42' E 135°24'0 0.0
2018-Jun-17 22:59N 34°42' E 135°24'0 0.0
2018-Jun-17 22:30N 34°42' E 135°24'0 0.0
2018-Jun-17 22:00N 34°42' E 135°24'0 0.0
2018-Jun-17 21:30N 34°42' E 135°24'0 0.0
2018-Jun-17 21:00N 34°42' E 135°24'0 0.0
2018-Jun-17 20:28N 34°42' E 135°24'0 0.0
2018-Jun-17 19:57N 34°42' E 135°24'0 0.0
2018-Jun-17 19:26N 34°42' E 135°24'0 0.0
2018-Jun-17 19:00N 34°42' E 135°24'0 0.0
2018-Jun-17 18:30N 34°42' E 135°24'0 0.0
2018-Jun-17 17:59N 34°42' E 135°24'0 0.0
2018-Jun-17 17:30N 34°42' E 135°24'0 0.0
2018-Jun-17 16:59N 34°42' E 135°24'0 0.0
2018-Jun-17 16:17N 34°42' E 135°24'0 0.0
2018-Jun-17 15:58N 34°42' E 135°24'0 0.0
2018-Jun-17 15:29N 34°42' E 135°24'0 0.0
2018-Jun-17 15:00N 34°42' E 135°24'0 0.0
2018-Jun-17 14:30N 34°42' E 135°24'0 0.0
2018-Jun-17 13:57N 34°42' E 135°24'0 0.0
2018-Jun-17 13:27N 34°42' E 135°24'0 0.0
2018-Jun-17 12:58N 34°42' E 135°24'0 0.0
2018-Jun-17 10:27N 34°42' E 135°24'0 0.0
2018-Jun-17 09:24N 34°42' E 135°24'0 0.0
2018-Jun-17 03:47N 34°42' E 135°24'0 0.0
2018-Jun-17 03:24N 34°42' E 135°24'0 0.0
2018-Jun-17 02:41N 34°42' E 135°24'0 0.0
2018-Jun-17 01:42N 34°42' E 135°24'0 0.0
2018-Jun-17 01:24N 34°42' E 135°24'0 0.0
2018-Jun-17 00:08N 34°42' E 135°24'0 1.0
2018-Jun-17 00:00N 34°42' E 135°24'3 5.3
2018-Jun-16 23:30N 34°40' E 135°22'510.6
2018-Jun-16 23:00N 34°38' E 135°16'510.6
2018-Jun-16 22:30N 34°36' E 135°10'510.9
2018-Jun-16 22:00N 34°36' E 135°03'611.4
2018-Jun-16 21:28N 34°37' E 134°56'9 1.4
2018-Jun-16 15:14N 34°43' E 134°49'4 0.1
2018-Jun-15 03:51N 34°39' E 134°48'711.5
2018-Jun-15 03:16N 34°34' E 134°43'310.7
2018-Jun-15 02:59N 34°31' E 134°41'511.3
2018-Jun-15 02:30N 34°26' E 134°40'611.3
2018-Jun-15 02:00N 34°20' E 134°39'12 1.6
2018-Jun-14 18:35N 34°11' E 134°49'111.6
2018-Jun-14 18:30N 34°12' E 134°50'611.4
2018-Jun-14 18:00N 34°14' E 134°56'612.0
2018-Jun-14 17:30N 34°20' E 134°59'510.4
2018-Jun-14 17:00N 34°25' E 135°00'612.1
2018-Jun-14 16:30N 34°31' E 135°02'610.4
2018-Jun-14 15:58N 34°36' E 135°02'  
Track history (hours):
 
Tides and Currents Weather Stations Pressure Air Temp Water Temp Dewpoint Dewpoint Depression Visibility Wind Speed Wind Dir Waves Ship Positions

Shinkyo Maru No.3

Last reported at 2018-Jun-24 15:50 UTC. Time now 2018-Jun-24 20:41 UTC.
Position N 34°43' E 134°48'.

Length 55 m; draft 3 m.

Type: Cargo ship. MMSI: 431003752.

Date/timePositionNaut miles runAvg speedWind from/ knotsBaromVisibWave heightAir tempDewpointWater temp
2018-Jun-24 15:50N 34°43' E 134°48'  
2018-Jun-22 06:49N 34°42' E 134°50'611.8
2018-Jun-22 06:18N 34°38' E 134°56'413.0
2018-Jun-22 05:57N 34°37' E 135°01'612.3
2018-Jun-22 05:30N 34°37' E 135°08'611.8
2018-Jun-22 05:00N 34°39' E 135°15'3 6.5
2018-Jun-22 04:30N 34°42' E 135°15'0 0.0
2018-Jun-22 03:55N 34°42' E 135°15'0 0.0
2018-Jun-22 03:13N 34°42' E 135°15'0 0.0
2018-Jun-22 02:55N 34°42' E 135°15'0 0.0
2018-Jun-22 02:13N 34°42' E 135°15'0 0.0
2018-Jun-22 01:55N 34°42' E 135°15'0 0.0
2018-Jun-22 01:25N 34°42' E 135°15'0 0.0
2018-Jun-22 00:55N 34°42' E 135°15'0 0.0
2018-Jun-22 00:13N 34°42' E 135°15'0 0.0
2018-Jun-21 23:43N 34°42' E 135°15'0 0.0
2018-Jun-21 23:25N 34°42' E 135°15'0 0.0
2018-Jun-21 22:55N 34°42' E 135°15'0 0.8
2018-Jun-21 22:27N 34°42' E 135°15'0 0.6
2018-Jun-21 21:58N 34°42' E 135°15'3 6.5
2018-Jun-21 21:30N 34°39' E 135°15'3 6.0
2018-Jun-21 21:00N 34°37' E 135°13'3 6.7
2018-Jun-21 20:31N 34°36' E 135°09'5 9.1
2018-Jun-21 20:00N 34°36' E 135°03'7 8.9
2018-Jun-21 19:16N 34°37' E 134°56'6 9.4
2018-Jun-21 18:37N 34°41' E 134°50'0 0.0
2018-Jun-21 14:15N 34°41' E 134°50'310.9
2018-Jun-21 13:58N 34°39' E 134°53'710.7
2018-Jun-21 13:18N 34°37' E 135°01'3 9.0
2018-Jun-21 13:00N 34°36' E 135°04'611.2
2018-Jun-21 12:30N 34°38' E 135°11'5 9.2
2018-Jun-21 12:00N 34°41' E 135°15'1 1.9
2018-Jun-21 11:23N 34°42' E 135°15'0 0.0
2018-Jun-21 10:53N 34°42' E 135°15'0 0.0
2018-Jun-21 10:23N 34°42' E 135°15'0 0.0
2018-Jun-21 09:53N 34°42' E 135°15'0 0.0
2018-Jun-21 09:29N 34°42' E 135°15'0 0.0
2018-Jun-21 08:47N 34°42' E 135°15'0 0.0
2018-Jun-21 08:29N 34°42' E 135°15'0 0.0
2018-Jun-21 07:23N 34°42' E 135°15'0 0.0
2018-Jun-21 06:59N 34°42' E 135°15'0 0.0
2018-Jun-21 06:29N 34°42' E 135°15'0 0.0
2018-Jun-21 05:59N 34°42' E 135°15'0 0.0
2018-Jun-21 05:29N 34°42' E 135°15'0 0.0
2018-Jun-21 04:53N 34°42' E 135°15'0 0.0
2018-Jun-21 04:29N 34°42' E 135°15'0 0.0
2018-Jun-21 03:59N 34°42' E 135°15'0 0.0
2018-Jun-21 03:23N 34°42' E 135°15'0 0.0
2018-Jun-21 02:53N 34°42' E 135°15'0 0.0
2018-Jun-21 02:23N 34°42' E 135°15'0 0.0
2018-Jun-21 01:05N 34°42' E 135°15'0 0.0
2018-Jun-21 00:59N 34°42' E 135°15'0 0.0
2018-Jun-21 00:23N 34°42' E 135°15'0 0.0
2018-Jun-20 23:53N 34°42' E 135°15'0 0.0
2018-Jun-20 23:29N 34°42' E 135°15'0 0.0
2018-Jun-20 22:59N 34°42' E 135°15'0 0.0
2018-Jun-20 22:29N 34°42' E 135°15'0 0.2
2018-Jun-20 21:59N 34°42' E 135°15'3 6.4
2018-Jun-20 21:30N 34°39' E 135°15'3 6.4
2018-Jun-20 21:00N 34°37' E 135°13'510.0
2018-Jun-20 20:30N 34°35' E 135°07'510.0
2018-Jun-20 20:00N 34°37' E 135°01'510.4
2018-Jun-20 19:30N 34°37' E 134°55'7 0.8
2018-Jun-20 11:17N 34°42' E 134°49'1 0.3
2018-Jun-20 08:31N 34°41' E 134°50'110.9
2018-Jun-20 08:26N 34°40' E 134°50'510.2
2018-Jun-20 07:57N 34°38' E 134°55'511.5
2018-Jun-20 07:30N 34°37' E 135°01'611.0
2018-Jun-20 07:00N 34°35' E 135°08'611.0
2018-Jun-20 06:30N 34°34' E 135°14'611.4
2018-Jun-20 06:00N 34°33' E 135°21'3 0.4
2018-Jun-19 22:27N 34°31' E 135°25'3 7.4
2018-Jun-19 21:59N 34°33' E 135°21'510.3
2018-Jun-19 21:29N 34°33' E 135°15'510.5
2018-Jun-19 21:00N 34°34' E 135°08'510.8
2018-Jun-19 20:30N 34°36' E 135°02'510.8
2018-Jun-19 20:00N 34°37' E 134°56'611.1
2018-Jun-19 19:29N 34°40' E 134°50'3 0.3
2018-Jun-19 09:44N 34°43' E 134°48'210.6
2018-Jun-19 09:30N 34°41' E 134°50'5 9.7
2018-Jun-19 08:56N 34°38' E 134°55'5 9.9
2018-Jun-19 08:27N 34°37' E 135°01'4 8.4
2018-Jun-19 08:00N 34°37' E 135°06'510.9
2018-Jun-19 07:30N 34°38' E 135°12'4 8.8
2018-Jun-19 07:00N 34°42' E 135°15'0 0.4
2018-Jun-19 06:26N 34°42' E 135°15'0 0.0
2018-Jun-19 05:56N 34°42' E 135°15'0 0.0
2018-Jun-19 05:20N 34°42' E 135°15'0 0.0
2018-Jun-19 04:50N 34°42' E 135°15'0 0.0
2018-Jun-19 04:26N 34°42' E 135°15'0 0.0
2018-Jun-19 03:44N 34°42' E 135°15'0 0.0
2018-Jun-19 03:20N 34°42' E 135°15'0 0.0
2018-Jun-19 02:56N 34°42' E 135°15'0 0.0
2018-Jun-19 01:44N 34°42' E 135°15'0 0.0
2018-Jun-19 00:56N 34°42' E 135°15'0 0.0
2018-Jun-19 00:26N 34°42' E 135°15'0 0.0
2018-Jun-18 23:56N 34°42' E 135°15'0 0.0
2018-Jun-18 23:26N 34°42' E 135°15'0 0.2
2018-Jun-18 23:00N 34°42' E 135°15'1 1.5
2018-Jun-18 22:30N 34°41' E 135°15'0 0.0
2018-Jun-18 22:00N 34°41' E 135°15'0 0.0
2018-Jun-18 21:30N 34°41' E 135°15'0 0.0
2018-Jun-18 21:00N 34°41' E 135°15'0 0.0
2018-Jun-18 20:30N 34°41' E 135°15'0 0.0
2018-Jun-18 20:00N 34°41' E 135°15'0 0.0
2018-Jun-18 19:30N 34°41' E 135°15'0 0.1
2018-Jun-18 19:00N 34°41' E 135°15'1 1.6
2018-Jun-18 18:30N 34°41' E 135°15'4 8.6
2018-Jun-18 18:00N 34°37' E 135°12'610.4
2018-Jun-18 17:28N 34°35' E 135°06'4 8.4
2018-Jun-18 16:57N 34°37' E 135°01'5 9.1
2018-Jun-18 16:22N 34°37' E 134°54'5 9.5
2018-Jun-18 15:51N 34°40' E 134°50'3 0.4
2018-Jun-18 08:33N 34°43' E 134°48'210.2
2018-Jun-18 08:21N 34°41' E 134°50'3 9.7
2018-Jun-18 08:00N 34°39' E 134°53'510.0
2018-Jun-18 07:28N 34°38' E 134°59'4 8.5
2018-Jun-18 07:00N 34°36' E 135°04'611.0
2018-Jun-18 06:30N 34°37' E 135°10'612.1
2018-Jun-18 06:00N 34°38' E 135°17'611.8
2018-Jun-18 05:29N 34°42' E 135°24'0 0.7
2018-Jun-18 04:56N 34°42' E 135°24'0 0.0
2018-Jun-18 04:29N 34°42' E 135°24'0 0.0
2018-Jun-18 04:00N 34°42' E 135°24'0 0.0
2018-Jun-18 03:30N 34°42' E 135°24'0 0.0
2018-Jun-18 03:00N 34°42' E 135°24'0 0.0
2018-Jun-18 02:30N 34°42' E 135°24'0 0.1
2018-Jun-18 01:59N 34°42' E 135°24'0 0.0
2018-Jun-18 01:30N 34°42' E 135°24'0 0.0
2018-Jun-18 01:00N 34°42' E 135°24'0 0.0
2018-Jun-18 00:25N 34°42' E 135°24'0 0.0
2018-Jun-18 00:00N 34°42' E 135°24'0 0.0
2018-Jun-17 23:30N 34°42' E 135°24'0 0.0
2018-Jun-17 22:59N 34°42' E 135°24'0 0.0
2018-Jun-17 22:30N 34°42' E 135°24'0 0.0
2018-Jun-17 22:00N 34°42' E 135°24'0 0.0
2018-Jun-17 21:30N 34°42' E 135°24'0 0.0
2018-Jun-17 21:00N 34°42' E 135°24'0 0.0
2018-Jun-17 20:28N 34°42' E 135°24'0 0.0
2018-Jun-17 19:57N 34°42' E 135°24'0 0.0
2018-Jun-17 19:26N 34°42' E 135°24'0 0.0
2018-Jun-17 19:00N 34°42' E 135°24'0 0.0
2018-Jun-17 18:30N 34°42' E 135°24'0 0.0
2018-Jun-17 17:59N 34°42' E 135°24'0 0.0
2018-Jun-17 17:30N 34°42' E 135°24'0 0.0
2018-Jun-17 16:59N 34°42' E 135°24'0 0.0
2018-Jun-17 16:17N 34°42' E 135°24'0 0.0
2018-Jun-17 15:58N 34°42' E 135°24'0 0.0
2018-Jun-17 15:29N 34°42' E 135°24'0 0.0
2018-Jun-17 15:00N 34°42' E 135°24'0 0.0
2018-Jun-17 14:30N 34°42' E 135°24'0 0.0
2018-Jun-17 13:57N 34°42' E 135°24'0 0.0
2018-Jun-17 13:27N 34°42' E 135°24'0 0.0
2018-Jun-17 12:58N 34°42' E 135°24'0 0.0
2018-Jun-17 10:27N 34°42' E 135°24'0 0.0
2018-Jun-17 09:24N 34°42' E 135°24'0 0.0
2018-Jun-17 03:47N 34°42' E 135°24'0 0.0
2018-Jun-17 03:24N 34°42' E 135°24'0 0.0
2018-Jun-17 02:41N 34°42' E 135°24'0 0.0
2018-Jun-17 01:42N 34°42' E 135°24'0 0.0
2018-Jun-17 01:24N 34°42' E 135°24'0 0.0
2018-Jun-17 00:08N 34°42' E 135°24'0 1.0
2018-Jun-17 00:00N 34°42' E 135°24'3 5.3
2018-Jun-16 23:30N 34°40' E 135°22'510.6
2018-Jun-16 23:00N 34°38' E 135°16'510.6
2018-Jun-16 22:30N 34°36' E 135°10'510.9
2018-Jun-16 22:00N 34°36' E 135°03'611.4
2018-Jun-16 21:28N 34°37' E 134°56'9 1.4
2018-Jun-16 15:14N 34°43' E 134°49'4 0.1
2018-Jun-15 03:51N 34°39' E 134°48'711.5
2018-Jun-15 03:16N 34°34' E 134°43'310.7
2018-Jun-15 02:59N 34°31' E 134°41'511.3
2018-Jun-15 02:30N 34°26' E 134°40'611.3
2018-Jun-15 02:00N 34°20' E 134°39'12 1.6
2018-Jun-14 18:35N 34°11' E 134°49'111.6
2018-Jun-14 18:30N 34°12' E 134°50'611.4
2018-Jun-14 18:00N 34°14' E 134°56'612.0
2018-Jun-14 17:30N 34°20' E 134°59'510.4
2018-Jun-14 17:00N 34°25' E 135°00'612.1
2018-Jun-14 16:30N 34°31' E 135°02'610.4
2018-Jun-14 15:58N 34°36' E 135°02'  

Dump ship's entire track history